^^
Meteo Knjazevac Station Historical Data
Daily Summary for January 25, 2021 Units:  English    Metric   Both
Daily Weekly Monthly Yearly Custom
  High: Low: Average:
Temperature: 52 °F 50.2 °F 51 °F
Dew Point: 43.2 °F 40.6 °F 41.6 °F
Humidity: 72% 68% 70%
Wind Speed: 14mph 2mph 6.8mph
Wind Gust: 21mph - -
Wind- - SSW
Pressure: 30.00 in 29.96 in -
Precipitation: 0.00 in    
Historical Graphs
 
 
Tabular Data for January 25, 2021
Time Temperature Dew Point Pressure Wind Wind Speed Wind Gust Humidity Rainfall Rate (Hourly) solar Conditions
00:00 50.4 °F 40.9 °F 29.96 in SW 10 mph 19 mph 70% 0.00 in 0 W/m2
00:10 50.4 °F 40.9 °F 29.96 in SW 13 mph 17 mph 70% 0.00 in 0 W/m2
00:20 50.4 °F 40.6 °F 29.96 in SW 12 mph 20 mph 69% 0.00 in 0 W/m2
00:30 50.2 °F 40.8 °F 29.96 in SW 9 mph 16 mph 70% 0.00 in 0 W/m2
00:40 50.4 °F 40.9 °F 29.96 in SW 12 mph 18 mph 70% 0.00 in 0 W/m2
00:50 50.5 °F 40.7 °F 29.96 in SW 14 mph 21 mph 69% 0.00 in 0 W/m2
01:00 50.7 °F 40.9 °F 29.96 in SW 10 mph 17 mph 69% 0.00 in 0 W/m2
01:10 50.7 °F 40.9 °F 29.96 in SW 8 mph 14 mph 69% 0.00 in 0 W/m2
01:20 50.7 °F 40.9 °F 29.97 in SW 9 mph 16 mph 69% 0.00 in 0 W/m2
01:40 50.9 °F 41.1 °F 29.96 in SW 10 mph 20 mph 69% 0.00 in 0 W/m2
01:50 51.1 °F 41.3 °F 29.96 in SW 8 mph 18 mph 69% 0.00 in 0 W/m2
02:00 50.9 °F 41.1 °F 29.96 in SW 8 mph 12 mph 69% 0.00 in 0 W/m2
02:10 51.1 °F 41.3 °F 29.96 in SW 8 mph 15 mph 69% 0.00 in 0 W/m2
02:20 51.3 °F 41.1 °F 29.96 in SW 8 mph 15 mph 68% 0.00 in 0 W/m2
02:30 51.3 °F 41.1 °F 29.96 in SW 8 mph 15 mph 68% 0.00 in 0 W/m2
02:40 51.3 °F 41.1 °F 29.96 in SW 7 mph 12 mph 68% 0.00 in 0 W/m2
02:50 51.3 °F 41.1 °F 29.96 in SW 6 mph 15 mph 68% 0.00 in 0 W/m2
03:00 51.3 °F 41.1 °F 29.96 in SSW 8 mph 14 mph 68% 0.00 in 0 W/m2
03:20 51.1 °F 40.9 °F 29.96 in SSE 5 mph 9 mph 68% 0.00 in 0 W/m2
03:30 50.9 °F 40.7 °F 29.96 in SSW 5 mph 12 mph 68% 0.00 in 0 W/m2
03:40 50.7 °F 40.9 °F 29.96 in SSW 6 mph 12 mph 69% 0.00 in 0 W/m2
03:50 51.1 °F 41.3 °F 29.96 in SW 6 mph 13 mph 69% 0.00 in 0 W/m2
04:00 51.1 °F 41.3 °F 29.96 in SW 7 mph 10 mph 69% 0.00 in 0 W/m2
04:10 51.1 °F 41.3 °F 29.96 in SW 6 mph 14 mph 69% 0.00 in 0 W/m2
04:20 51.1 °F 41.3 °F 29.96 in SW 7 mph 13 mph 69% 0.00 in 0 W/m2
04:30 51.1 °F 41.6 °F 29.96 in SW 2 mph 10 mph 70% 0.00 in 0 W/m2
04:40 50.9 °F 41.5 °F 29.96 in SW 2 mph 8 mph 70% 0.00 in 0 W/m2
04:50 50.7 °F 42 °F 29.97 in SSW 3 mph 6 mph 72% 0.00 in 0 W/m2
05:00 50.7 °F 42 °F 29.97 in SSW 5 mph 9 mph 72% 0.00 in 0 W/m2
05:10 50.9 °F 42.2 °F 29.97 in SW 6 mph 10 mph 72% 0.00 in 0 W/m2
05:20 50.7 °F 42 °F 29.97 in South 3 mph 6 mph 72% 0.00 in 0 W/m2
05:30 50.4 °F 41.7 °F 29.96 in SSW 2 mph 6 mph 72% 0.00 in 0 W/m2
05:50 50.9 °F 42.2 °F 29.97 in SW 5 mph 12 mph 72% 0.00 in 0 W/m2
06:00 51.1 °F 42.4 °F 29.97 in SSW 7 mph 11 mph 72% 0.00 in 0 W/m2
06:10 50.9 °F 41.5 °F 29.97 in East 2 mph 9 mph 70% 0.00 in 0 W/m2
06:30 50.9 °F 41.5 °F 29.98 in SE 5 mph 7 mph 70% 0.00 in 0 W/m2
06:50 51.1 °F 41.6 °F 29.98 in SSE 5 mph 10 mph 70% 0.00 in 0 W/m2
07:00 51.1 °F 41.6 °F 29.98 in South 7 mph 14 mph 70% 0.00 in 0 W/m2
07:10 51.3 °F 42.5 °F 29.99 in SW 3 mph 7 mph 72% 0.00 in 3 W/m2
07:20 51.6 °F 42.9 °F 29.99 in SSW 6 mph 12 mph 72% 0.00 in 7 W/m2
07:30 51.6 °F 42.9 °F 29.99 in SW 8 mph 13 mph 72% 0.00 in 14 W/m2
07:40 51.6 °F 42.9 °F 29.99 in SW 8 mph 15 mph 72% 0.00 in 21 W/m2
07:50 51.6 °F 42.9 °F 29.99 in SW 8 mph 13 mph 72% 0.00 in 35 W/m2
08:00 51.6 °F 42.9 °F 30.00 in SW 6 mph 12 mph 72% 0.00 in 61 W/m2
08:10 51.8 °F 43.1 °F 30.00 in SW 7 mph 12 mph 72% 0.00 in 60 W/m2
08:20 51.8 °F 43.1 °F 29.99 in SW 5 mph 8 mph 72% 0.00 in 43 W/m2
08:30 51.8 °F 43.1 °F 30.00 in SW 6 mph 8 mph 72% 0.00 in 52 W/m2
08:40 52 °F 43.2 °F 30.00 in SW 6 mph 8 mph 72% 0.00 in 83 W/m2
Knjazevac, Serbia
Compliments of Weather Underground - 2 mb